sensor_id;sensor_type;location;lat;lon;timestamp;temperature;humidity
66629;DHT22;53532;53.084;6.352;2022-10-18T00:00:08;12.50;99.90
66629;DHT22;53532;53.084;6.352;2022-10-18T00:02:34;12.50;99.90
66629;DHT22;53532;53.084;6.352;2022-10-18T00:04:59;12.50;99.90
66629;DHT22;53532;53.084;6.352;2022-10-18T00:07:25;12.50;99.90
66629;DHT22;53532;53.084;6.352;2022-10-18T00:09:52;12.50;99.90
66629;DHT22;53532;53.084;6.352;2022-10-18T00:12:18;12.50;99.90
66629;DHT22;53532;53.084;6.352;2022-10-18T00:14:47;12.50;99.90
66629;DHT22;53532;53.084;6.352;2022-10-18T00:17:13;12.50;99.90
66629;DHT22;53532;53.084;6.352;2022-10-18T00:19:38;12.50;99.90
66629;DHT22;53532;53.084;6.352;2022-10-18T00:22:04;12.50;99.90
66629;DHT22;53532;53.084;6.352;2022-10-18T00:24:30;12.50;99.90
66629;DHT22;53532;53.084;6.352;2022-10-18T00:26:57;12.50;99.90
66629;DHT22;53532;53.084;6.352;2022-10-18T00:29:23;12.50;99.90
66629;DHT22;53532;53.084;6.352;2022-10-18T00:31:48;12.60;99.90
66629;DHT22;53532;53.084;6.352;2022-10-18T00:34:15;12.60;99.90
66629;DHT22;53532;53.084;6.352;2022-10-18T00:36:42;12.60;99.90
66629;DHT22;53532;53.084;6.352;2022-10-18T00:39:13;12.60;99.90
66629;DHT22;53532;53.084;6.352;2022-10-18T00:41:39;12.70;99.90
66629;DHT22;53532;53.084;6.352;2022-10-18T00:47:12;12.70;99.90
66629;DHT22;53532;53.084;6.352;2022-10-18T00:49:41;12.70;99.90
66629;DHT22;53532;53.084;6.352;2022-10-18T00:52:10;12.70;99.90
66629;DHT22;53532;53.084;6.352;2022-10-18T00:54:39;12.60;99.90
66629;DHT22;53532;53.084;6.352;2022-10-18T00:57:06;12.70;99.90
66629;DHT22;53532;53.084;6.352;2022-10-18T00:59:33;12.60;99.90
66629;DHT22;53532;53.084;6.352;2022-10-18T01:01:59;12.60;99.90
66629;DHT22;53532;53.084;6.352;2022-10-18T01:04:25;12.60;99.90
66629;DHT22;53532;53.084;6.352;2022-10-18T01:06:58;12.60;99.90
66629;DHT22;53532;53.084;6.352;2022-10-18T01:09:29;12.50;99.90
66629;DHT22;53532;53.084;6.352;2022-10-18T01:12:10;12.40;99.90
66629;DHT22;53532;53.084;6.352;2022-10-18T01:14:45;12.30;99.90
66629;DHT22;53532;53.084;6.352;2022-10-18T01:17:18;12.30;99.90
66629;DHT22;53532;53.084;6.352;2022-10-18T01:20:22;12.10;99.90
66629;DHT22;53532;53.084;6.352;2022-10-18T01:23:01;12.10;99.90
66629;DHT22;53532;53.084;6.352;2022-10-18T01:25:38;12.00;99.90
66629;DHT22;53532;53.084;6.352;2022-10-18T01:28:14;12.00;99.90
66629;DHT22;53532;53.084;6.352;2022-10-18T01:30:51;11.90;99.90
66629;DHT22;53532;53.084;6.352;2022-10-18T01:33:24;11.90;99.90
66629;DHT22;53532;53.084;6.352;2022-10-18T01:35:56;11.90;99.90
66629;DHT22;53532;53.084;6.352;2022-10-18T01:38:24;11.90;99.90
66629;DHT22;53532;53.084;6.352;2022-10-18T01:40:51;11.90;99.90
66629;DHT22;53532;53.084;6.352;2022-10-18T01:43:19;11.90;99.90
66629;DHT22;53532;53.084;6.352;2022-10-18T01:45:46;12.00;99.90
66629;DHT22;53532;53.084;6.352;2022-10-18T01:48:14;12.00;99.90
66629;DHT22;53532;53.084;6.352;2022-10-18T01:50:41;12.00;99.90
66629;DHT22;53532;53.084;6.352;2022-10-18T01:53:24;12.00;99.90
66629;DHT22;53532;53.084;6.352;2022-10-18T01:58:45;12.10;99.90
66629;DHT22;53532;53.084;6.352;2022-10-18T02:01:19;12.10;99.90
66629;DHT22;53532;53.084;6.352;2022-10-18T02:03:49;12.00;99.90
66629;DHT22;53532;53.084;6.352;2022-10-18T02:06:20;12.10;99.90
66629;DHT22;53532;53.084;6.352;2022-10-18T02:08:52;12.00;99.90
66629;DHT22;53532;53.084;6.352;2022-10-18T02:11:20;12.00;99.90
66629;DHT22;53532;53.084;6.352;2022-10-18T02:13:48;12.00;99.90
66629;DHT22;53532;53.084;6.352;2022-10-18T02:16:19;12.10;99.90
66629;DHT22;53532;53.084;6.352;2022-10-18T02:18:51;12.10;99.90
66629;DHT22;53532;53.084;6.352;2022-10-18T02:21:20;12.20;99.90
66629;DHT22;53532;53.084;6.352;2022-10-18T02:23:47;12.20;99.90
66629;DHT22;53532;53.084;6.352;2022-10-18T02:26:14;12.20;99.90
66629;DHT22;53532;53.084;6.352;2022-10-18T02:28:40;12.30;99.90
66629;DHT22;53532;53.084;6.352;2022-10-18T02:31:11;12.30;99.90
66629;DHT22;53532;53.084;6.352;2022-10-18T02:33:43;12.40;99.90
66629;DHT22;53532;53.084;6.352;2022-10-18T02:36:16;12.40;99.90
66629;DHT22;53532;53.084;6.352;2022-10-18T02:38:44;12.40;99.90
66629;DHT22;53532;53.084;6.352;2022-10-18T02:41:11;12.50;99.90
66629;DHT22;53532;53.084;6.352;2022-10-18T02:43:36;12.50;99.90
66629;DHT22;53532;53.084;6.352;2022-10-18T02:46:02;12.50;99.90
66629;DHT22;53532;53.084;6.352;2022-10-18T02:48:28;12.60;99.90
66629;DHT22;53532;53.084;6.352;2022-10-18T02:50:54;12.60;99.90
66629;DHT22;53532;53.084;6.352;2022-10-18T02:53:21;12.60;99.90
66629;DHT22;53532;53.084;6.352;2022-10-18T02:55:47;12.70;99.90
66629;DHT22;53532;53.084;6.352;2022-10-18T02:58:12;12.70;99.90
66629;DHT22;53532;53.084;6.352;2022-10-18T03:00:39;12.70;99.90
66629;DHT22;53532;53.084;6.352;2022-10-18T03:03:04;12.80;99.90
66629;DHT22;53532;53.084;6.352;2022-10-18T03:05:30;12.80;99.90
66629;DHT22;53532;53.084;6.352;2022-10-18T03:07:56;12.80;99.90
66629;DHT22;53532;53.084;6.352;2022-10-18T03:10:23;12.90;99.90
66629;DHT22;53532;53.084;6.352;2022-10-18T03:12:49;12.90;99.90
66629;DHT22;53532;53.084;6.352;2022-10-18T03:15:15;12.90;99.90
66629;DHT22;53532;53.084;6.352;2022-10-18T03:17:41;12.90;99.90
66629;DHT22;53532;53.084;6.352;2022-10-18T03:20:07;12.90;99.90
66629;DHT22;53532;53.084;6.352;2022-10-18T03:22:33;13.00;99.90
66629;DHT22;53532;53.084;6.352;2022-10-18T03:24:59;12.90;99.90
66629;DHT22;53532;53.084;6.352;2022-10-18T03:27:26;13.00;99.90
66629;DHT22;53532;53.084;6.352;2022-10-18T03:29:51;13.00;99.90
66629;DHT22;53532;53.084;6.352;2022-10-18T03:32:17;12.90;99.90
66629;DHT22;53532;53.084;6.352;2022-10-18T03:34:43;13.00;99.90
66629;DHT22;53532;53.084;6.352;2022-10-18T03:37:09;13.00;99.90
66629;DHT22;53532;53.084;6.352;2022-10-18T03:39:35;13.00;99.90
66629;DHT22;53532;53.084;6.352;2022-10-18T03:42:01;13.00;99.90
66629;DHT22;53532;53.084;6.352;2022-10-18T03:44:28;13.00;99.90
66629;DHT22;53532;53.084;6.352;2022-10-18T03:46:53;13.00;99.90
66629;DHT22;53532;53.084;6.352;2022-10-18T03:49:19;13.10;99.90
66629;DHT22;53532;53.084;6.352;2022-10-18T03:51:45;13.00;99.90
66629;DHT22;53532;53.084;6.352;2022-10-18T03:54:10;13.00;99.90
66629;DHT22;53532;53.084;6.352;2022-10-18T03:56:36;13.00;99.90
66629;DHT22;53532;53.084;6.352;2022-10-18T03:59:02;13.00;99.90
66629;DHT22;53532;53.084;6.352;2022-10-18T04:01:30;13.00;99.90
66629;DHT22;53532;53.084;6.352;2022-10-18T04:03:56;13.00;99.90
66629;DHT22;53532;53.084;6.352;2022-10-18T04:06:21;13.00;99.90
66629;DHT22;53532;53.084;6.352;2022-10-18T04:08:47;13.00;99.90
66629;DHT22;53532;53.084;6.352;2022-10-18T04:11:13;13.00;99.90
66629;DHT22;53532;53.084;6.352;2022-10-18T04:13:39;13.00;99.90
66629;DHT22;53532;53.084;6.352;2022-10-18T04:16:05;13.00;99.90
66629;DHT22;53532;53.084;6.352;2022-10-18T04:18:32;13.00;99.90
66629;DHT22;53532;53.084;6.352;2022-10-18T04:20:58;13.00;99.90
66629;DHT22;53532;53.084;6.352;2022-10-18T04:23:24;12.90;99.90
66629;DHT22;53532;53.084;6.352;2022-10-18T04:25:49;12.90;99.90
66629;DHT22;53532;53.084;6.352;2022-10-18T04:28:15;12.90;99.90
66629;DHT22;53532;53.084;6.352;2022-10-18T04:30:41;12.90;99.90
66629;DHT22;53532;53.084;6.352;2022-10-18T04:33:07;12.90;99.90
66629;DHT22;53532;53.084;6.352;2022-10-18T04:35:34;12.90;99.90
66629;DHT22;53532;53.084;6.352;2022-10-18T04:37:59;12.90;99.90
66629;DHT22;53532;53.084;6.352;2022-10-18T04:40:25;12.80;99.90
66629;DHT22;53532;53.084;6.352;2022-10-18T04:42:51;12.80;99.90
66629;DHT22;53532;53.084;6.352;2022-10-18T04:45:17;12.70;99.90
66629;DHT22;53532;53.084;6.352;2022-10-18T04:47:42;12.70;99.90
66629;DHT22;53532;53.084;6.352;2022-10-18T04:50:08;12.70;99.90
66629;DHT22;53532;53.084;6.352;2022-10-18T04:52:35;12.60;99.90
66629;DHT22;53532;53.084;6.352;2022-10-18T04:55:01;12.60;99.90
66629;DHT22;53532;53.084;6.352;2022-10-18T04:57:27;12.60;99.90
66629;DHT22;53532;53.084;6.352;2022-10-18T04:59:52;12.60;99.90
66629;DHT22;53532;53.084;6.352;2022-10-18T05:02:18;12.50;99.90
66629;DHT22;53532;53.084;6.352;2022-10-18T05:04:44;12.50;99.90
66629;DHT22;53532;53.084;6.352;2022-10-18T05:07:10;12.50;99.90
66629;DHT22;53532;53.084;6.352;2022-10-18T05:09:37;12.40;99.90
66629;DHT22;53532;53.084;6.352;2022-10-18T05:12:02;12.40;99.90
66629;DHT22;53532;53.084;6.352;2022-10-18T05:14:28;12.40;99.90
66629;DHT22;53532;53.084;6.352;2022-10-18T05:16:54;12.30;99.90
66629;DHT22;53532;53.084;6.352;2022-10-18T05:19:20;12.30;99.90
66629;DHT22;53532;53.084;6.352;2022-10-18T05:21:45;12.30;99.90
66629;DHT22;53532;53.084;6.352;2022-10-18T05:24:11;12.20;99.90
66629;DHT22;53532;53.084;6.352;2022-10-18T05:26:38;12.10;99.90
66629;DHT22;53532;53.084;6.352;2022-10-18T05:29:04;12.10;99.90
66629;DHT22;53532;53.084;6.352;2022-10-18T05:31:30;12.10;99.90
66629;DHT22;53532;53.084;6.352;2022-10-18T05:33:56;12.00;99.90
66629;DHT22;53532;53.084;6.352;2022-10-18T05:36:21;11.90;99.90
66629;DHT22;53532;53.084;6.352;2022-10-18T05:38:47;11.80;99.90
66629;DHT22;53532;53.084;6.352;2022-10-18T05:41:13;11.80;99.90
66629;DHT22;53532;53.084;6.352;2022-10-18T05:43:40;11.70;99.90
66629;DHT22;53532;53.084;6.352;2022-10-18T05:46:06;11.60;99.90
66629;DHT22;53532;53.084;6.352;2022-10-18T05:48:32;11.60;99.90
66629;DHT22;53532;53.084;6.352;2022-10-18T05:50:59;11.50;99.90
66629;DHT22;53532;53.084;6.352;2022-10-18T05:53:25;11.50;99.90
66629;DHT22;53532;53.084;6.352;2022-10-18T05:55:50;11.40;99.90
66629;DHT22;53532;53.084;6.352;2022-10-18T05:58:16;11.40;99.90
66629;DHT22;53532;53.084;6.352;2022-10-18T06:00:44;11.30;99.90
66629;DHT22;53532;53.084;6.352;2022-10-18T06:03:09;11.20;99.90
66629;DHT22;53532;53.084;6.352;2022-10-18T06:05:35;11.10;99.90
66629;DHT22;53532;53.084;6.352;2022-10-18T06:08:01;11.10;99.90
66629;DHT22;53532;53.084;6.352;2022-10-18T06:10:27;11.10;99.90
66629;DHT22;53532;53.084;6.352;2022-10-18T06:12:52;11.00;99.90
66629;DHT22;53532;53.084;6.352;2022-10-18T06:15:18;10.90;99.90
66629;DHT22;53532;53.084;6.352;2022-10-18T06:17:45;10.80;99.90
66629;DHT22;53532;53.084;6.352;2022-10-18T06:20:11;10.80;99.90
66629;DHT22;53532;53.084;6.352;2022-10-18T06:22:37;10.70;99.90
66629;DHT22;53532;53.084;6.352;2022-10-18T06:25:03;10.70;99.90
66629;DHT22;53532;53.084;6.352;2022-10-18T06:27:28;10.70;99.90
66629;DHT22;53532;53.084;6.352;2022-10-18T06:29:55;10.70;99.90
66629;DHT22;53532;53.084;6.352;2022-10-18T06:32:21;10.70;99.90
66629;DHT22;53532;53.084;6.352;2022-10-18T06:34:48;10.80;99.90
66629;DHT22;53532;53.084;6.352;2022-10-18T06:37:14;10.80;99.90
66629;DHT22;53532;53.084;6.352;2022-10-18T06:39:40;10.80;99.90
66629;DHT22;53532;53.084;6.352;2022-10-18T06:42:05;10.80;99.90
66629;DHT22;53532;53.084;6.352;2022-10-18T06:44:31;10.80;99.90
66629;DHT22;53532;53.084;6.352;2022-10-18T06:46:57;10.80;99.90
66629;DHT22;53532;53.084;6.352;2022-10-18T06:49:23;10.90;99.90
66629;DHT22;53532;53.084;6.352;2022-10-18T06:51:50;10.90;99.90
66629;DHT22;53532;53.084;6.352;2022-10-18T06:54:18;10.90;99.90
66629;DHT22;53532;53.084;6.352;2022-10-18T06:56:44;11.00;99.90
66629;DHT22;53532;53.084;6.352;2022-10-18T06:59:10;11.00;99.90
66629;DHT22;53532;53.084;6.352;2022-10-18T07:01:35;11.00;99.90
66629;DHT22;53532;53.084;6.352;2022-10-18T07:04:01;11.00;99.90
66629;DHT22;53532;53.084;6.352;2022-10-18T07:06:27;11.00;99.90
66629;DHT22;53532;53.084;6.352;2022-10-18T07:08:54;11.10;99.90
66629;DHT22;53532;53.084;6.352;2022-10-18T07:11:22;11.10;99.90
66629;DHT22;53532;53.084;6.352;2022-10-18T07:13:49;11.10;99.90
66629;DHT22;53532;53.084;6.352;2022-10-18T07:16:16;11.20;99.90
66629;DHT22;53532;53.084;6.352;2022-10-18T07:18:44;11.20;99.90
66629;DHT22;53532;53.084;6.352;2022-10-18T07:21:12;11.20;99.90
66629;DHT22;53532;53.084;6.352;2022-10-18T07:23:40;11.20;99.90
66629;DHT22;53532;53.084;6.352;2022-10-18T07:26:13;11.20;99.90
66629;DHT22;53532;53.084;6.352;2022-10-18T07:28:40;11.20;99.90
66629;DHT22;53532;53.084;6.352;2022-10-18T07:31:06;11.10;99.90
66629;DHT22;53532;53.084;6.352;2022-10-18T07:33:32;11.10;99.90
66629;DHT22;53532;53.084;6.352;2022-10-18T07:36:00;11.20;99.90
66629;DHT22;53532;53.084;6.352;2022-10-18T07:38:26;11.20;99.90
66629;DHT22;53532;53.084;6.352;2022-10-18T07:40:55;11.20;99.90
66629;DHT22;53532;53.084;6.352;2022-10-18T07:43:23;11.20;99.90
66629;DHT22;53532;53.084;6.352;2022-10-18T07:45:52;11.20;99.90
66629;DHT22;53532;53.084;6.352;2022-10-18T07:48:18;11.30;99.90
66629;DHT22;53532;53.084;6.352;2022-10-18T07:50:44;11.30;99.90
66629;DHT22;53532;53.084;6.352;2022-10-18T07:53:09;11.40;99.90
66629;DHT22;53532;53.084;6.352;2022-10-18T07:55:35;11.40;99.90
66629;DHT22;53532;53.084;6.352;2022-10-18T07:58:01;11.50;99.90
66629;DHT22;53532;53.084;6.352;2022-10-18T08:00:28;11.50;99.90
66629;DHT22;53532;53.084;6.352;2022-10-18T08:02:54;11.60;99.90
66629;DHT22;53532;53.084;6.352;2022-10-18T08:05:21;11.60;99.90
66629;DHT22;53532;53.084;6.352;2022-10-18T08:07:47;11.70;99.90
66629;DHT22;53532;53.084;6.352;2022-10-18T08:10:12;11.80;99.90
66629;DHT22;53532;53.084;6.352;2022-10-18T08:12:38;11.90;99.90
66629;DHT22;53532;53.084;6.352;2022-10-18T08:15:04;12.10;99.90
66629;DHT22;53532;53.084;6.352;2022-10-18T08:17:32;12.10;99.90
66629;DHT22;53532;53.084;6.352;2022-10-18T08:19:57;12.20;99.90
66629;DHT22;53532;53.084;6.352;2022-10-18T08:22:23;12.30;99.90
66629;DHT22;53532;53.084;6.352;2022-10-18T08:24:49;12.40;99.90
66629;DHT22;53532;53.084;6.352;2022-10-18T08:27:15;12.40;99.90
66629;DHT22;53532;53.084;6.352;2022-10-18T08:29:40;12.60;99.90
66629;DHT22;53532;53.084;6.352;2022-10-18T08:32:06;12.60;99.90
66629;DHT22;53532;53.084;6.352;2022-10-18T08:34:33;12.70;99.90
66629;DHT22;53532;53.084;6.352;2022-10-18T08:36:59;12.70;99.90
66629;DHT22;53532;53.084;6.352;2022-10-18T08:39:25;12.70;99.90
66629;DHT22;53532;53.084;6.352;2022-10-18T08:42:15;12.70;99.90
66629;DHT22;53532;53.084;6.352;2022-10-18T08:44:47;12.80;99.90
66629;DHT22;53532;53.084;6.352;2022-10-18T08:47:16;12.80;99.90
66629;DHT22;53532;53.084;6.352;2022-10-18T08:49:46;12.80;99.90
66629;DHT22;53532;53.084;6.352;2022-10-18T08:52:18;12.80;99.90
66629;DHT22;53532;53.084;6.352;2022-10-18T08:54:54;12.80;99.90
66629;DHT22;53532;53.084;6.352;2022-10-18T08:57:20;12.80;99.90
66629;DHT22;53532;53.084;6.352;2022-10-18T08:59:47;12.80;99.90
66629;DHT22;53532;53.084;6.352;2022-10-18T09:02:19;12.90;99.90
66629;DHT22;53532;53.084;6.352;2022-10-18T09:04:55;12.90;99.90
66629;DHT22;53532;53.084;6.352;2022-10-18T09:07:43;13.00;99.90
66629;DHT22;53532;53.084;6.352;2022-10-18T09:10:18;13.00;99.90
66629;DHT22;53532;53.084;6.352;2022-10-18T09:12:59;13.00;99.90
66629;DHT22;53532;53.084;6.352;2022-10-18T09:15:33;13.10;99.90
66629;DHT22;53532;53.084;6.352;2022-10-18T09:18:12;13.10;99.90
66629;DHT22;53532;53.084;6.352;2022-10-18T09:20:48;13.20;99.90
66629;DHT22;53532;53.084;6.352;2022-10-18T09:23:18;13.20;99.90
66629;DHT22;53532;53.084;6.352;2022-10-18T09:25:46;13.20;99.90
66629;DHT22;53532;53.084;6.352;2022-10-18T09:28:22;13.30;99.90
66629;DHT22;53532;53.084;6.352;2022-10-18T09:30:56;13.30;99.90
66629;DHT22;53532;53.084;6.352;2022-10-18T09:33:34;13.40;99.90
66629;DHT22;53532;53.084;6.352;2022-10-18T09:36:08;13.40;99.90
66629;DHT22;53532;53.084;6.352;2022-10-18T09:38:40;13.50;99.90
66629;DHT22;53532;53.084;6.352;2022-10-18T09:41:12;13.50;99.90
66629;DHT22;53532;53.084;6.352;2022-10-18T09:43:44;13.50;99.90
66629;DHT22;53532;53.084;6.352;2022-10-18T09:46:13;13.60;99.90
66629;DHT22;53532;53.084;6.352;2022-10-18T09:48:44;13.60;99.90
66629;DHT22;53532;53.084;6.352;2022-10-18T09:51:14;13.70;99.90
66629;DHT22;53532;53.084;6.352;2022-10-18T09:53:55;13.80;99.90
66629;DHT22;53532;53.084;6.352;2022-10-18T09:56:27;13.90;99.90
66629;DHT22;53532;53.084;6.352;2022-10-18T09:58:54;13.90;99.90
66629;DHT22;53532;53.084;6.352;2022-10-18T10:01:21;14.00;99.90
66629;DHT22;53532;53.084;6.352;2022-10-18T10:03:48;14.10;99.90
66629;DHT22;53532;53.084;6.352;2022-10-18T10:06:21;14.10;99.90
66629;DHT22;53532;53.084;6.352;2022-10-18T10:08:53;14.20;99.90
66629;DHT22;53532;53.084;6.352;2022-10-18T10:11:28;14.20;99.90
66629;DHT22;53532;53.084;6.352;2022-10-18T10:13:56;14.20;99.90
66629;DHT22;53532;53.084;6.352;2022-10-18T10:16:22;14.20;99.90
66629;DHT22;53532;53.084;6.352;2022-10-18T10:18:52;14.30;99.90
66629;DHT22;53532;53.084;6.352;2022-10-18T10:21:20;14.30;99.90
66629;DHT22;53532;53.084;6.352;2022-10-18T10:23:51;14.30;99.90
66629;DHT22;53532;53.084;6.352;2022-10-18T10:26:21;14.50;99.90
66629;DHT22;53532;53.084;6.352;2022-10-18T10:28:47;14.50;99.90
66629;DHT22;53532;53.084;6.352;2022-10-18T10:31:26;14.60;99.90
66629;DHT22;53532;53.084;6.352;2022-10-18T10:33:58;14.80;99.90
66629;DHT22;53532;53.084;6.352;2022-10-18T10:36:26;15.00;99.90
66629;DHT22;53532;53.084;6.352;2022-10-18T10:39:03;15.10;99.90
66629;DHT22;53532;53.084;6.352;2022-10-18T10:41:29;15.30;99.90
66629;DHT22;53532;53.084;6.352;2022-10-18T10:43:55;15.40;99.90
66629;DHT22;53532;53.084;6.352;2022-10-18T10:46:22;15.40;99.90
66629;DHT22;53532;53.084;6.352;2022-10-18T10:48:49;15.40;99.90
66629;DHT22;53532;53.084;6.352;2022-10-18T10:51:26;15.40;99.90
66629;DHT22;53532;53.084;6.352;2022-10-18T10:54:01;15.30;99.90
66629;DHT22;53532;53.084;6.352;2022-10-18T10:56:29;15.30;99.90
66629;DHT22;53532;53.084;6.352;2022-10-18T10:58:59;15.30;99.90
66629;DHT22;53532;53.084;6.352;2022-10-18T11:01:29;15.30;99.90
66629;DHT22;53532;53.084;6.352;2022-10-18T11:03:57;15.40;99.90
66629;DHT22;53532;53.084;6.352;2022-10-18T11:06:44;15.40;99.90
66629;DHT22;53532;53.084;6.352;2022-10-18T11:09:32;15.60;99.90
66629;DHT22;53532;53.084;6.352;2022-10-18T11:12:07;15.90;99.90
66629;DHT22;53532;53.084;6.352;2022-10-18T11:14:35;16.10;99.90
66629;DHT22;53532;53.084;6.352;2022-10-18T11:17:10;16.30;99.90
66629;DHT22;53532;53.084;6.352;2022-10-18T11:19:41;16.60;99.90
66629;DHT22;53532;53.084;6.352;2022-10-18T11:22:15;16.70;99.90
66629;DHT22;53532;53.084;6.352;2022-10-18T11:24:44;16.70;99.90
66629;DHT22;53532;53.084;6.352;2022-10-18T11:27:14;16.70;99.90
66629;DHT22;53532;53.084;6.352;2022-10-18T11:29:47;16.50;99.90
66629;DHT22;53532;53.084;6.352;2022-10-18T11:32:23;16.30;99.90
66629;DHT22;53532;53.084;6.352;2022-10-18T11:35:05;16.10;99.90
66629;DHT22;53532;53.084;6.352;2022-10-18T11:37:50;15.90;99.90
66629;DHT22;53532;53.084;6.352;2022-10-18T11:40:34;15.70;99.90
66629;DHT22;53532;53.084;6.352;2022-10-18T11:43:11;15.60;99.90
66629;DHT22;53532;53.084;6.352;2022-10-18T11:45:45;15.60;99.90
66629;DHT22;53532;53.084;6.352;2022-10-18T11:51:04;15.60;99.90
66629;DHT22;53532;53.084;6.352;2022-10-18T11:53:37;15.70;99.90
66629;DHT22;53532;53.084;6.352;2022-10-18T11:56:12;15.80;99.90
66629;DHT22;53532;53.084;6.352;2022-10-18T11:58:50;16.00;99.90
66629;DHT22;53532;53.084;6.352;2022-10-18T12:01:23;16.10;99.90
66629;DHT22;53532;53.084;6.352;2022-10-18T12:03:56;16.10;99.90
66629;DHT22;53532;53.084;6.352;2022-10-18T12:06:27;16.20;99.90
66629;DHT22;53532;53.084;6.352;2022-10-18T12:08:57;16.30;99.90
66629;DHT22;53532;53.084;6.352;2022-10-18T12:11:28;16.30;99.90
66629;DHT22;53532;53.084;6.352;2022-10-18T12:13:57;16.30;99.90
66629;DHT22;53532;53.084;6.352;2022-10-18T12:16:27;16.30;99.90
66629;DHT22;53532;53.084;6.352;2022-10-18T12:18:55;16.30;99.90
66629;DHT22;53532;53.084;6.352;2022-10-18T12:21:23;16.20;99.90
66629;DHT22;53532;53.084;6.352;2022-10-18T12:23:52;16.10;99.90
66629;DHT22;53532;53.084;6.352;2022-10-18T12:26:19;15.90;99.90
66629;DHT22;53532;53.084;6.352;2022-10-18T12:28:55;15.80;99.90
66629;DHT22;53532;53.084;6.352;2022-10-18T12:31:25;15.60;99.90
66629;DHT22;53532;53.084;6.352;2022-10-18T12:33:55;15.50;99.90
66629;DHT22;53532;53.084;6.352;2022-10-18T12:39:15;15.50;99.90
66629;DHT22;53532;53.084;6.352;2022-10-18T12:41:46;15.60;99.90
66629;DHT22;53532;53.084;6.352;2022-10-18T12:44:19;15.80;99.90
66629;DHT22;53532;53.084;6.352;2022-10-18T12:46:48;16.00;99.90
66629;DHT22;53532;53.084;6.352;2022-10-18T12:49:19;16.00;99.90
66629;DHT22;53532;53.084;6.352;2022-10-18T12:51:50;15.90;99.90
66629;DHT22;53532;53.084;6.352;2022-10-18T12:54:26;15.80;99.90
66629;DHT22;53532;53.084;6.352;2022-10-18T12:56:53;15.60;99.90
66629;DHT22;53532;53.084;6.352;2022-10-18T12:59:50;15.50;99.90
66629;DHT22;53532;53.084;6.352;2022-10-18T13:02:27;15.40;99.90
66629;DHT22;53532;53.084;6.352;2022-10-18T13:04:54;15.30;99.90
66629;DHT22;53532;53.084;6.352;2022-10-18T13:07:35;15.20;99.90
66629;DHT22;53532;53.084;6.352;2022-10-18T13:10:38;15.20;99.90
66629;DHT22;53532;53.084;6.352;2022-10-18T13:16:07;15.10;99.90
66629;DHT22;53532;53.084;6.352;2022-10-18T13:18:43;15.10;99.90
66629;DHT22;53532;53.084;6.352;2022-10-18T13:21:18;15.10;99.90
66629;DHT22;53532;53.084;6.352;2022-10-18T13:26:48;15.20;99.90
66629;DHT22;53532;53.084;6.352;2022-10-18T13:29:29;15.20;99.90
66629;DHT22;53532;53.084;6.352;2022-10-18T13:32:06;15.20;99.90
66629;DHT22;53532;53.084;6.352;2022-10-18T13:34:39;15.10;99.90
66629;DHT22;53532;53.084;6.352;2022-10-18T13:37:17;14.90;99.90
66629;DHT22;53532;53.084;6.352;2022-10-18T13:39:44;14.80;99.90
66629;DHT22;53532;53.084;6.352;2022-10-18T13:42:30;14.70;99.90
66629;DHT22;53532;53.084;6.352;2022-10-18T13:51:11;14.60;99.90
66629;DHT22;53532;53.084;6.352;2022-10-18T13:53:47;14.60;99.90
66629;DHT22;53532;53.084;6.352;2022-10-18T13:56:37;14.60;99.90
66629;DHT22;53532;53.084;6.352;2022-10-18T13:59:17;14.60;99.90
66629;DHT22;53532;53.084;6.352;2022-10-18T14:01:58;14.60;99.90
66629;DHT22;53532;53.084;6.352;2022-10-18T14:05:03;14.70;99.90
66629;DHT22;53532;53.084;6.352;2022-10-18T14:07:36;14.70;99.90
66629;DHT22;53532;53.084;6.352;2022-10-18T14:10:03;14.70;99.90
66629;DHT22;53532;53.084;6.352;2022-10-18T14:12:33;14.70;99.90
66629;DHT22;53532;53.084;6.352;2022-10-18T14:15:03;14.70;99.90
66629;DHT22;53532;53.084;6.352;2022-10-18T14:17:34;14.70;99.90
66629;DHT22;53532;53.084;6.352;2022-10-18T14:20:15;14.70;99.90
66629;DHT22;53532;53.084;6.352;2022-10-18T14:22:47;14.80;99.90
66629;DHT22;53532;53.084;6.352;2022-10-18T14:25:25;14.90;99.90
66629;DHT22;53532;53.084;6.352;2022-10-18T14:28:08;15.00;99.90
66629;DHT22;53532;53.084;6.352;2022-10-18T14:30:36;15.10;99.90
66629;DHT22;53532;53.084;6.352;2022-10-18T14:33:02;15.20;99.90
66629;DHT22;53532;53.084;6.352;2022-10-18T14:35:30;15.20;99.90
66629;DHT22;53532;53.084;6.352;2022-10-18T14:37:57;15.20;99.90
66629;DHT22;53532;53.084;6.352;2022-10-18T14:40:29;15.20;99.90
66629;DHT22;53532;53.084;6.352;2022-10-18T14:42:55;15.20;99.90
66629;DHT22;53532;53.084;6.352;2022-10-18T14:45:21;15.10;99.90
66629;DHT22;53532;53.084;6.352;2022-10-18T14:47:48;15.00;99.90
66629;DHT22;53532;53.084;6.352;2022-10-18T14:50:21;15.00;99.90
66629;DHT22;53532;53.084;6.352;2022-10-18T14:52:49;14.90;99.90
66629;DHT22;53532;53.084;6.352;2022-10-18T14:55:16;14.90;99.90
66629;DHT22;53532;53.084;6.352;2022-10-18T14:57:42;14.80;99.90
66629;DHT22;53532;53.084;6.352;2022-10-18T15:00:18;14.70;99.90
66629;DHT22;53532;53.084;6.352;2022-10-18T15:02:45;14.70;99.90
66629;DHT22;53532;53.084;6.352;2022-10-18T15:05:19;14.70;99.90
66629;DHT22;53532;53.084;6.352;2022-10-18T15:07:46;14.80;99.90
66629;DHT22;53532;53.084;6.352;2022-10-18T15:10:17;14.80;99.90
66629;DHT22;53532;53.084;6.352;2022-10-18T15:12:44;14.80;99.90
66629;DHT22;53532;53.084;6.352;2022-10-18T15:15:17;14.80;99.90
66629;DHT22;53532;53.084;6.352;2022-10-18T15:17:44;14.70;99.90
66629;DHT22;53532;53.084;6.352;2022-10-18T15:20:19;14.70;99.90
66629;DHT22;53532;53.084;6.352;2022-10-18T15:22:45;14.70;99.90
66629;DHT22;53532;53.084;6.352;2022-10-18T15:25:16;14.60;99.90
66629;DHT22;53532;53.084;6.352;2022-10-18T15:27:44;14.50;99.90
66629;DHT22;53532;53.084;6.352;2022-10-18T15:30:19;14.50;99.90
66629;DHT22;53532;53.084;6.352;2022-10-18T15:32:48;14.40;99.90
66629;DHT22;53532;53.084;6.352;2022-10-18T15:35:17;14.40;99.90
66629;DHT22;53532;53.084;6.352;2022-10-18T15:37:45;14.30;99.90
66629;DHT22;53532;53.084;6.352;2022-10-18T15:40:35;14.20;99.90
66629;DHT22;53532;53.084;6.352;2022-10-18T15:43:03;14.20;99.90
66629;DHT22;53532;53.084;6.352;2022-10-18T15:45:33;14.10;99.90
66629;DHT22;53532;53.084;6.352;2022-10-18T15:48:02;14.10;99.90
66629;DHT22;53532;53.084;6.352;2022-10-18T15:50:40;14.00;99.90
66629;DHT22;53532;53.084;6.352;2022-10-18T15:53:30;14.10;99.90
66629;DHT22;53532;53.084;6.352;2022-10-18T15:55:59;14.00;99.90
66629;DHT22;53532;53.084;6.352;2022-10-18T15:58:27;14.00;99.90
66629;DHT22;53532;53.084;6.352;2022-10-18T16:00:55;14.00;99.90
66629;DHT22;53532;53.084;6.352;2022-10-18T16:03:22;14.00;99.90
66629;DHT22;53532;53.084;6.352;2022-10-18T16:05:52;14.00;99.90
66629;DHT22;53532;53.084;6.352;2022-10-18T16:08:20;14.00;99.90